Date,TemperatureHighF,TemperatureAvgF,TemperatureLowF,DewpointHighF,DewpointAvgF,DewpointLowF,HumidityHigh,HumidityAvg,HumidityLow,PressureMaxIn,PressureMinIn,WindSpeedMaxMPH,WindSpeedAvgMPH,GustSpeedMaxMPH,PrecipitationSumIn
2013-3-16,68.9,68.7,68.5,41.6,39.9,38.5,37,35,33,30.05,30.04,16,14,21,0.00
2013-3-17,73.9,70.6,68.2,54.9,37.3,13.0,58,34,10,30.05,29.87,18,14,26,0.00
2013-3-18,77.7,71.8,67.1,57.4,29.8,9.9,65,28,10,30.07,29.90,14,8,18,0.00
2013-3-19,72.3,69.3,63.9,47.2,24.6,10.4,50,19,10,30.15,30.02,24,14,33,0.00
2013-3-20,73.9,68.4,63.3,57.9,44.6,22.6,59,45,17,30.33,30.09,21,14,34,0.15
2013-3-21,70.7,68.7,66.4,51.6,45.3,24.3,55,44,18,30.22,29.87,20,16,27,0.00
2013-3-22,72.7,70.8,69.6,56.0,42.1,12.7,59,37,10,29.91,29.83,20,11,28,0.00
2013-3-23,79.3,70.7,63.3,67.3,51.4,31.4,90,53,23,29.89,29.76,15,7,20,0.00
2013-3-24,69.8,61.0,51.4,54.7,39.5,27.2,68,47,24,30.32,29.83,22,11,37,1.02
2013-3-25,64.6,54.1,43.2,36.1,26.2,7.7,69,39,11,30.55,30.32,17,10,30,0.00
2013-3-26,67.1,55.4,44.1,46.2,32.3,12.6,65,45,12,30.62,29.80,14,9,21,0.00
2013-3-27,63.7,60.8,52.3,53.7,48.7,44.1,76,64,58,29.84,29.69,18,13,24,0.00
2013-3-28,68.0,65.2,63.0,53.3,49.3,45.3,69,57,49,29.71,29.63,11,8,15,0.00
2013-3-29,71.8,67.8,63.5,51.7,47.0,41.3,65,48,40,29.67,29.57,15,8,18,0.00
2013-3-30,74.1,70.3,67.3,49.8,38.6,14.8,49,33,11,29.60,29.43,17,11,23,0.00
2013-3-31,77.4,72.3,69.1,51.9,36.4,13.4,53,30,10,29.45,29.31,22,12,29,0.00
2013-4-1,75.9,70.2,64.8,46.3,34.5,16.1,43,27,13,29.51,29.37,23,13,30,0.00
2013-4-2,75.2,71.7,66.7,53.4,31.7,13.4,61,25,10,29.46,29.27,22,14,31,0.85
2013-4-3,71.6,63.7,55.4,52.9,37.9,22.6,63,39,23,29.57,29.23,18,10,30,0.40
2013-4-4,62.1,56.4,52.0,48.4,39.8,29.2,64,54,40,29.67,29.53,15,10,27,0.02
2013-4-5,64.4,57.2,42.8,50.3,40.8,29.4,70,55,41,29.75,29.58,13,8,19,0.00
2013-4-6,71.2,67.5,62.8,41.9,29.7,9.9,46,27,10,29.59,29.41,20,16,27,0.00
2013-4-7,72.5,70.2,68.2,34.6,12.5,9.7,27,11,10,29.44,29.31,19,15,24,0.00
2013-4-8,76.1,71.9,69.1,46.5,32.3,10.3,39,24,10,29.32,29.20,22,18,31,0.00
2013-4-9,75.2,73.2,71.2,60.1,47.0,32.9,62,41,22,29.24,29.11,25,22,32,0.00
2013-4-10,75.0,65.3,52.3,64.1,50.2,33.3,74,59,38,29.32,29.12,25,17,34,0.04
2013-4-11,74.3,58.5,46.4,52.3,43.1,34.4,82,58,36,29.98,29.31,20,10,35,0.98
2013-4-12,71.6,63.8,48.7,53.6,47.8,39.8,77,57,47,30.02,29.90,19,9,24,0.00
2013-4-13,70.7,68.0,62.6,47.3,43.3,36.9,57,41,31,29.98,29.80,20,13,27,0.00
2013-4-14,74.7,69.9,61.3,61.6,52.8,40.5,83,55,39,29.83,29.69,20,11,27,0.00
2013-4-15,76.3,73.4,71.2,65.6,59.1,55.3,76,61,49,29.85,29.73,20,13,25,0.00
2013-4-16,82.9,74.3,72.7,71.3,60.7,54.4,85,64,47,29.93,29.82,26,15,34,0.00
2013-4-17,75.9,74.5,72.0,72.3,62.0,14.8,91,69,10,29.92,29.72,27,19,36,0.00
2013-4-18,75.2,66.8,57.0,62.9,17.0,1.4,68,18,10,30.06,29.69,24,16,38,0.13
2013-4-19,71.1,59.3,50.7,40.5,34.4,4.7,63,42,12,30.30,30.06,20,12,31,0.00
2013-4-20,65.5,60.4,51.1,50.4,39.9,6.5,66,51,10,30.25,30.09,21,12,27,0.00
2013-4-21,70.3,65.9,57.4,24.6,8.0,1.3,18,10,10,30.15,30.05,22,13,27,0.00
2013-4-22,72.7,68.4,59.7,13.0,9.8,3.1,10,10,10,30.12,29.96,20,11,26,0.00
2013-4-23,74.7,72.5,70.2,14.5,12.9,11.1,10,10,10,29.99,29.88,19,13,24,0.00
2013-4-24,73.4,57.1,49.5,13.6,1.1,-4.8,10,10,10,30.21,29.99,23,12,36,0.06
2013-4-25,66.9,63.4,60.8,44.4,13.8,3.9,47,16,10,30.30,30.19,14,9,24,0.00
2013-4-26,77.0,70.0,67.1,43.7,14.6,8.6,42,13,10,30.20,30.08,16,12,21,0.00
2013-4-27,75.4,72.5,70.2,65.1,32.4,11.5,84,32,10,30.12,29.96,19,11,25,0.00
2013-4-28,76.1,72.1,66.6,49.7,21.3,8.3,43,16,10,30.08,29.88,30,12,40,1.11
2013-4-29,76.1,72.4,68.7,37.6,17.3,11.4,30,13,10,29.95,29.83,19,10,26,0.19
2013-4-30,77.2,73.3,68.7,42.2,15.4,10.0,29,11,10,29.85,29.75,19,13,26,0.04
2013-5-1,74.1,73.6,73.2,14.1,13.7,13.4,10,10,10,29.82,29.79,15,9,20,0.00
2013-5-2,72.1,61.8,55.4,49.2,20.5,3.2,75,28,10,30.21,30.10,13,7,17,0.02
2013-5-3,75.4,65.9,58.8,56.7,33.3,7.1,91,41,10,30.16,30.03,16,7,21,0.02
2013-5-4,75.2,66.6,59.4,52.3,30.8,7.5,67,34,10,30.05,29.94,18,8,24,0.02
2013-5-5,72.5,67.6,64.8,36.2,15.2,7.2,34,14,10,30.03,29.94,13,8,15,0.00
2013-5-6,71.2,68.4,66.9,28.3,12.1,8.5,23,11,10,29.99,29.87,17,12,20,0.00
2013-5-7,76.1,71.3,32.0,63.7,43.2,-28.3,67,45,6,29.93,29.35,18,13,21,0.00
2013-5-8,76.1,73.7,71.1,66.2,60.7,53.9,73,64,54,29.90,29.80,20,15,27,0.00
2013-5-9,76.6,75.2,73.8,69.0,59.8,54.9,81,59,47,29.83,29.68,21,15,27,0.00
2013-5-10,77.2,74.9,68.0,70.6,62.5,54.9,89,66,52,29.85,29.67,21,12,34,0.45
2013-5-11,87.3,76.1,68.2,71.3,62.1,52.6,72,62,50,29.95,29.81,11,7,18,0.02
2013-5-12,82.2,75.0,69.3,66.4,61.1,54.4,73,63,41,30.03,29.89,17,10,22,0.00
2013-5-13,76.1,72.8,66.0,67.7,64.4,59.0,84,75,66,30.12,30.02,16,11,21,0.00
2013-5-14,77.2,74.4,71.8,68.7,66.7,64.5,80,77,73,30.09,29.94,22,15,28,0.00
2013-5-15,76.6,75.0,73.6,69.4,67.5,65.9,86,77,75,29.99,29.76,27,19,34,0.06
2013-5-16,78.6,76.5,74.5,73.2,69.9,67.4,90,80,75,29.77,29.64,26,18,36,0.00
2013-5-17,80.4,77.9,75.6,72.9,70.4,68.8,87,78,72,29.79,29.67,20,16,28,0.00
2013-5-18,81.7,78.8,77.2,72.9,71.0,69.2,82,77,72,29.80,29.73,25,17,32,0.00
2013-5-19,81.0,79.1,77.5,71.0,69.4,68.4,77,72,68,29.76,29.65,26,20,35,0.00
2013-5-20,81.0,79.8,78.8,71.2,69.5,68.6,76,71,68,29.73,29.60,23,19,30,0.00
2013-5-21,82.2,80.1,78.8,73.2,69.5,67.4,81,70,62,29.70,29.59,23,17,32,0.00
2013-5-22,84.4,82.1,79.7,71.4,68.6,66.2,74,64,60,29.76,29.67,17,12,22,0.00
2013-5-23,82.8,80.9,79.3,68.0,65.3,63.7,67,59,54,29.89,29.73,19,15,25,0.00
2013-5-24,82.6,81.0,79.7,65.9,63.9,62.1,60,56,52,29.96,29.84,22,17,28,0.00
2013-5-25,81.7,80.2,78.3,64.5,62.6,60.3,58,55,53,29.99,29.88,22,18,29,0.00
2013-5-26,82.6,80.3,78.4,64.8,62.5,60.5,57,55,52,29.95,29.85,20,15,27,0.00
2013-5-27,82.8,80.7,78.8,67.8,63.5,59.7,61,56,51,29.88,29.75,23,18,30,0.00
2013-5-28,83.7,80.6,79.2,64.8,61.7,59.4,58,53,48,29.80,29.68,27,23,34,0.00
2013-5-29,81.9,80.6,79.3,61.3,59.4,57.8,53,49,46,29.72,29.62,29,22,36,0.00
2013-5-30,83.1,81.4,79.9,61.1,58.8,57.9,50,46,43,29.71,29.64,25,19,34,0.02
2013-5-31,84.9,82.5,80.6,60.8,58.1,54.8,49,44,39,29.75,29.67,22,17,30,0.00
2013-6-1,86.0,83.1,80.4,63.0,56.4,53.0,47,40,35,29.76,29.67,23,18,32,0.00
2013-6-2,90.5,82.0,71.6,69.6,58.0,50.0,78,45,35,29.90,29.71,25,10,34,0.98
2013-6-3,88.7,80.9,72.0,67.5,59.3,49.1,75,49,32,29.82,29.69,17,7,22,0.00
2013-6-4,84.4,82.1,79.0,63.2,56.3,47.9,51,42,30,29.76,29.67,17,10,22,0.00
2013-6-5,86.0,83.3,77.5,61.7,52.5,44.6,46,35,26,29.73,29.63,18,10,22,0.00
2013-6-6,88.3,83.5,76.6,65.6,54.1,45.8,63,37,27,29.75,29.58,19,10,30,0.00
2013-6-7,89.4,79.9,73.9,66.8,54.7,45.2,52,42,30,29.78,29.69,14,6,21,0.21
2013-6-8,88.2,81.1,72.7,65.4,52.6,42.0,52,38,24,29.77,29.66,19,8,24,0.06
2013-6-9,86.9,81.5,73.6,57.8,43.2,36.2,46,26,19,29.79,29.69,22,12,28,0.09
2013-6-10,86.5,82.8,75.9,60.5,44.9,31.5,57,28,16,29.83,29.77,20,9,25,0.00
2013-6-11,87.1,84.4,81.7,56.5,44.6,37.2,40,25,18,29.88,29.81,18,13,25,0.00
2013-6-12,88.3,84.4,82.9,61.7,44.2,35.3,41,25,17,29.90,29.83,19,13,25,0.00
2013-6-13,88.0,84.3,82.6,48.9,39.1,35.0,26,20,17,29.91,29.78,16,11,22,0.00
2013-6-14,88.9,85.1,82.2,60.2,47.8,36.9,40,28,19,29.84,29.74,14,10,19,0.00
2013-6-15,88.2,85.3,82.6,64.2,48.8,38.0,45,29,19,29.84,29.75,17,12,23,0.00
2013-6-16,87.8,85.4,82.2,59.3,48.6,39.3,39,28,20,29.87,29.78,20,14,27,0.00
2013-6-17,88.9,85.5,82.2,62.6,48.5,40.4,42,28,21,29.84,29.73,20,15,27,0.00
2013-6-18,88.9,85.1,81.3,65.9,50.6,41.2,47,31,23,29.84,29.73,18,12,27,0.00
2013-6-19,88.7,85.2,81.3,64.7,50.3,41.1,45,30,23,29.84,29.77,18,13,26,0.00
2013-6-20,87.6,85.4,82.9,58.8,48.3,41.4,38,28,22,29.91,29.82,19,15,25,0.00
2013-6-21,87.6,85.3,83.1,56.8,47.6,40.1,36,27,21,29.94,29.86,18,14,24,0.00
2013-6-22,87.3,85.3,83.5,56.3,45.7,39.8,35,25,21,29.90,29.79,19,15,25,0.00
2013-6-23,87.3,85.1,83.1,59.0,48.2,39.3,39,28,21,29.85,29.78,20,15,26,0.00
2013-6-24,87.8,85.3,83.3,58.0,46.5,37.7,37,26,19,29.90,29.80,21,17,29,0.00
2013-6-25,87.3,85.2,82.9,56.8,44.5,36.6,36,24,18,29.87,29.78,23,18,30,0.00
2013-6-26,87.8,85.2,82.4,57.1,43.9,35.6,36,24,17,29.85,29.77,22,17,31,0.00
2013-6-27,90.3,85.2,81.5,64.2,49.3,38.2,44,30,20,29.88,29.78,17,12,23,0.00
2013-6-28,95.4,85.8,80.6,67.7,52.5,39.9,46,33,22,29.85,29.68,18,9,25,0.00
2013-6-29,99.3,86.9,80.4,72.9,54.9,42.0,49,34,25,29.73,29.57,18,10,24,0.00
2013-6-30,99.5,88.8,79.0,65.9,56.1,40.8,48,34,22,29.73,29.62,12,5,25,0.00
2013-7-1,98.6,86.2,77.7,66.1,56.3,40.5,48,38,14,29.82,29.68,16,9,22,0.00
2013-7-2,96.1,84.3,72.7,64.3,54.7,40.7,49,38,15,29.87,29.75,18,5,24,0.00
2013-7-3,89.2,83.1,75.0,64.5,58.1,51.5,48,43,37,29.87,29.76,20,9,25,0.00
2013-7-4,89.1,83.9,75.4,63.7,58.7,51.9,46,42,39,29.83,29.74,17,9,22,0.00
2013-7-5,88.0,84.2,75.2,63.1,57.1,51.2,51,40,32,29.81,29.70,18,11,23,0.00
2013-7-6,87.3,84.1,77.5,61.6,53.4,47.3,43,35,29,29.77,29.68,21,11,26,0.00
2013-7-7,89.4,83.9,80.4,60.6,51.5,47.5,39,33,28,29.84,29.73,26,10,33,0.06
2013-7-8,87.1,83.3,74.8,57.8,44.8,35.3,53,27,17,29.97,29.84,23,14,34,0.51
2013-7-9,86.9,85.3,83.1,46.6,39.9,34.4,25,20,17,29.98,29.88,18,13,24,0.00
2013-7-10,89.1,85.4,80.6,56.2,45.1,36.9,34,25,19,29.94,29.81,16,10,25,0.00
2013-7-11,88.5,85.0,81.0,58.2,46.6,38.6,36,26,21,29.86,29.76,18,10,25,0.00
2013-7-12,92.1,84.9,80.1,66.5,50.2,40.1,43,31,22,29.82,29.75,15,8,21,0.00
2013-7-13,93.2,85.4,77.0,66.4,54.4,40.4,44,35,24,29.83,29.70,17,6,24,0.00
2013-7-14,91.0,85.2,81.1,62.1,52.0,44.0,39,32,26,29.78,29.71,22,10,27,0.00
2013-7-15,87.1,83.7,79.5,54.1,47.3,41.1,33,28,23,29.85,29.72,22,15,34,0.11
2013-7-16,86.0,83.8,80.2,56.6,48.0,39.8,37,29,22,29.93,29.81,21,17,29,0.04
2013-7-17,83.1,79.3,77.4,55.8,44.7,38.8,47,30,22,30.00,29.91,16,8,23,0.19
2013-7-18,86.0,82.1,76.3,53.9,45.4,37.6,43,28,20,29.98,29.83,16,10,21,0.00
2013-7-19,89.2,84.5,77.4,59.2,48.9,39.0,42,29,21,29.90,29.77,16,10,21,0.00
2013-7-20,87.4,84.9,81.7,56.6,48.1,40.1,36,28,21,29.83,29.72,17,10,22,0.01
2013-7-21,86.7,82.9,77.2,51.9,42.7,38.0,39,24,19,29.85,29.75,20,10,27,0.91
2013-7-22,87.8,85.6,83.1,52.4,44.3,37.8,30,24,18,29.87,29.79,20,16,28,0.00
2013-7-23,88.9,85.5,82.4,59.0,46.5,37.7,37,26,19,29.88,29.78,20,16,28,0.00
2013-7-24,88.9,85.3,81.1,57.6,47.0,39.6,36,27,21,29.85,29.73,19,12,26,0.00
2013-7-25,91.8,85.7,80.6,60.3,46.1,38.3,36,25,19,29.88,29.81,19,11,25,0.00
2013-7-26,88.7,85.4,81.9,57.6,44.9,37.5,35,24,19,29.89,29.77,20,13,29,0.00
2013-7-27,91.4,85.2,82.2,62.3,45.6,38.4,38,25,20,29.81,29.69,21,10,28,0.00
2013-7-28,89.1,85.5,82.2,55.3,46.1,36.6,33,26,18,29.81,29.74,21,12,30,0.00
2013-7-29,87.1,85.3,83.3,50.6,42.6,34.9,29,23,17,29.91,29.80,22,18,29,0.00
2013-7-30,88.2,85.1,82.4,53.8,42.2,35.0,31,22,17,29.95,29.87,20,15,26,0.00
2013-7-31,92.5,85.9,80.8,61.4,44.0,33.3,36,24,17,29.95,29.81,16,11,24,0.00
2013-8-1,92.8,86.4,81.1,61.2,45.5,32.5,35,25,16,29.88,29.77,16,10,24,0.00
2013-8-2,93.0,85.6,81.7,60.6,44.4,33.8,36,24,17,29.85,29.76,18,10,23,0.00
2013-8-3,88.5,85.6,81.3,50.8,41.1,30.9,29,21,14,29.88,29.81,19,13,24,0.00
2013-8-4,88.9,86.3,83.1,52.4,41.7,32.3,29,21,15,29.92,29.83,18,14,25,0.00
2013-8-5,89.2,85.9,83.1,50.9,32.2,22.2,27,15,10,29.89,29.79,20,15,29,0.00
2013-8-6,90.3,86.1,83.1,45.1,25.7,21.0,21,11,10,29.84,29.71,23,17,33,0.00
2013-8-7,91.9,86.1,82.4,57.9,28.7,20.4,32,14,10,29.80,29.69,21,16,29,0.00
2013-8-8,89.2,85.1,81.7,49.6,25.3,19.9,26,12,10,29.78,29.72,20,12,28,0.00
2013-8-9,91.9,85.9,82.2,57.0,28.5,20.2,31,13,10,29.80,29.69,22,16,29,0.00
2013-8-10,89.2,85.2,77.4,47.7,26.4,19.8,24,12,10,29.87,29.72,18,12,23,0.30
2013-8-11,90.9,85.8,81.0,51.6,27.8,19.3,27,13,10,29.90,29.83,20,9,26,0.00
2013-8-12,90.3,86.0,82.2,52.8,25.9,20.3,28,12,10,29.92,29.82,16,11,21,0.00
2013-8-13,92.1,86.9,82.0,61.1,31.4,20.2,37,15,10,29.89,29.77,18,12,24,0.00
2013-8-14,95.0,87.0,82.6,65.5,33.6,20.6,39,17,10,29.84,29.71,21,12,28,0.00
2013-8-15,91.8,84.8,80.2,61.5,27.5,18.8,37,13,10,29.85,29.75,18,9,24,0.00
2013-8-16,94.5,84.9,75.6,68.0,33.3,17.0,76,18,10,29.85,29.72,23,9,36,0.43
2013-8-17,94.8,82.8,73.4,65.3,35.8,14.0,40,20,10,29.84,29.75,15,8,20,0.00
2013-8-18,92.1,83.6,73.9,63.9,43.0,20.3,49,26,10,29.86,29.80,17,9,21,0.00
2013-8-19,87.4,82.8,73.0,64.0,36.4,19.7,68,21,10,29.88,29.76,19,11,24,0.00
2013-8-20,84.9,81.1,76.3,35.3,19.6,15.8,17,10,10,29.90,29.78,17,7,24,0.55
2013-8-21,88.0,85.2,81.7,33.9,22.8,19.9,15,10,10,29.90,29.83,17,11,23,0.00
2013-8-22,88.2,84.6,78.3,40.8,25.8,18.5,19,12,10,29.90,29.77,15,8,20,0.00
2013-8-23,90.5,85.3,78.4,59.0,30.3,17.6,35,15,10,29.85,29.74,17,9,21,0.00
2013-8-24,90.9,85.2,78.8,56.8,29.6,18.4,32,14,10,29.85,29.77,25,12,33,0.00
2013-8-25,88.2,82.8,78.3,44.0,24.1,17.3,28,12,10,29.90,29.83,16,8,24,0.11
2013-8-26,80.8,78.5,75.9,69.8,44.1,17.4,78,37,10,29.95,29.86,24,9,32,3.06
2013-8-27,86.4,82.8,77.5,57.6,29.6,18.2,50,18,10,29.94,29.87,16,10,20,0.02
2013-8-28,88.3,83.9,77.4,62.3,35.5,19.1,59,20,10,29.93,29.84,14,8,18,0.00
2013-8-29,93.9,86.2,78.4,62.2,35.2,17.4,35,18,10,29.92,29.80,16,6,21,0.00
2013-8-30,95.4,86.0,79.9,63.9,37.8,19.6,37,20,10,29.88,29.75,16,7,22,0.00
2013-8-31,93.4,85.8,79.0,62.2,39.8,19.2,36,21,10,29.81,29.69,15,8,20,0.00
2013-9-1,91.2,85.8,80.4,55.2,35.5,18.9,31,17,10,29.78,29.69,16,9,22,0.00
2013-9-2,91.6,86.5,82.2,59.6,32.4,20.3,35,15,10,29.82,29.70,15,9,21,0.00
2013-9-3,90.9,85.3,78.1,62.2,42.9,18.8,57,25,10,29.85,29.74,15,7,20,0.00
2013-9-4,91.8,85.5,77.7,62.9,43.9,19.7,44,24,10,29.89,29.78,14,7,19,0.00
2013-9-5,88.3,85.1,78.6,54.6,43.5,19.3,35,24,10,29.92,29.83,17,10,24,0.11
2013-9-6,90.5,84.8,77.9,57.7,36.4,22.5,34,19,10,29.92,29.80,19,9,24,0.00
2013-9-7,90.7,83.6,78.8,53.2,25.3,17.7,29,13,10,29.86,29.76,18,9,36,0.34
2013-9-8,87.4,82.4,77.0,42.8,21.3,16.3,22,10,10,29.81,29.73,22,10,29,0.49
2013-9-9,86.2,81.7,77.4,39.3,20.8,16.6,20,10,10,29.81,29.75,26,13,35,0.04
2013-9-10,86.5,83.6,77.9,40.3,22.8,17.0,23,11,10,29.88,29.79,19,14,25,0.00
2013-9-11,86.9,83.5,77.4,35.1,21.6,16.6,16,10,10,29.90,29.82,22,11,27,0.00
2013-9-12,87.8,82.6,76.3,49.6,25.5,15.8,27,13,10,29.87,29.74,19,10,25,0.02
2013-9-13,88.3,83.0,76.8,49.0,25.3,16.2,26,13,10,29.79,29.66,19,10,24,0.00
2013-9-14,87.6,83.4,75.4,54.2,26.5,15.1,32,13,10,29.75,29.67,21,12,27,0.00
2013-9-15,87.3,82.6,77.4,43.2,23.3,16.6,22,11,10,29.81,29.72,21,12,27,0.19
2013-9-16,86.5,83.8,79.2,43.2,22.6,18.0,22,11,10,29.84,29.76,22,16,29,0.00
2013-9-17,86.2,83.1,78.1,44.8,21.5,17.1,25,10,10,29.86,29.76,22,12,29,0.00
2013-9-18,87.1,83.2,77.7,47.2,25.7,16.9,26,13,10,29.83,29.72,21,12,27,0.00
2013-9-19,86.9,84.6,79.5,38.8,22.5,18.2,19,10,10,29.77,29.67,26,14,34,0.09
2013-9-20,86.7,83.7,78.4,23.7,21.4,17.4,10,10,10,29.70,29.56,25,14,34,0.47
2013-9-21,81.0,76.4,72.9,66.3,30.3,13.7,73,24,10,29.67,29.57,15,6,29,1.42
2013-9-22,87.1,78.0,70.3,57.4,33.2,11.2,41,22,10,29.67,29.57,16,8,21,0.00
2013-9-23,87.3,78.2,71.1,52.1,25.4,11.8,30,15,10,29.65,29.57,14,6,20,0.00
2013-9-24,95.2,83.8,75.0,63.4,35.8,14.8,41,20,10,29.71,29.63,11,5,18,0.00
2013-9-25,90.1,83.7,72.7,63.0,38.8,15.1,41,23,10,29.73,29.63,11,4,15,0.00
2013-9-26,86.0,83.0,78.1,43.5,23.6,17.1,23,12,10,29.74,29.67,20,11,25,0.00
2013-9-27,86.2,84.3,82.6,24.5,21.9,20.6,11,10,10,29.77,29.69,23,15,29,0.00
2013-9-28,86.7,85.0,82.6,23.7,22.4,20.6,10,10,10,29.81,29.72,23,16,30,0.02
2013-9-30,86.5,80.9,72.9,49.6,24.2,14.0,31,13,10,29.75,29.65,15,7,18,0.00
2013-10-1,83.1,81.1,78.1,33.1,19.9,17.1,17,10,10,29.78,29.67,20,10,25,0.43
2013-10-2,86.4,83.7,81.5,30.2,21.7,19.7,14,10,10,29.80,29.71,18,13,23,0.00
2013-10-3,86.9,84.0,80.6,51.6,30.3,19.1,30,15,10,29.79,29.71,17,11,23,0.00
2013-10-4,85.6,83.5,81.3,47.4,33.9,19.9,27,17,10,29.77,29.72,17,13,21,0.00
2013-10-5,90.7,83.6,72.3,63.5,37.7,17.8,41,22,10,29.81,29.69,16,6,27,0.00
2013-10-6,80.4,67.6,57.0,48.3,39.2,3.6,48,37,11,29.95,29.80,19,10,33,0.21
2013-10-7,60.3,58.6,55.9,38.8,36.3,33.6,45,43,38,29.93,29.92,4,2,8,0.00
2013-10-8,88.5,85.5,81.9,54.6,44.7,38.5,32,24,19,29.93,29.82,20,12,24,0.00
2013-10-9,91.2,85.4,82.2,61.0,45.4,38.0,37,25,20,29.86,29.74,21,12,25,0.00
2013-10-10,88.5,85.3,82.4,56.3,46.2,39.0,34,26,21,29.85,29.76,19,10,24,0.00
2013-10-11,87.1,85.4,83.3,52.5,43.1,36.2,31,23,18,29.93,29.80,22,17,26,0.00
2013-10-12,88.0,85.2,82.6,54.4,42.9,35.8,32,23,17,30.00,29.89,21,16,24,0.00
2013-10-13,92.5,82.5,77.0,61.2,37.3,19.2,36,21,11,29.99,29.92,17,11,23,0.00
2013-10-14,83.7,80.9,76.3,57.0,40.8,21.6,50,25,11,29.96,29.83,18,12,25,0.00
2013-10-15,84.2,81.7,79.2,51.7,35.6,18.0,33,20,10,29.86,29.77,16,12,21,0.00
2013-10-16,80.4,71.2,63.9,43.7,32.6,20.7,35,25,13,29.92,29.77,12,8,21,0.00
2013-10-17,80.1,69.6,62.8,53.0,42.1,28.0,45,37,26,29.98,29.85,14,8,23,0.00
2013-10-18,74.7,70.7,66.7,40.0,29.7,21.4,29,22,14,29.87,29.73,20,11,25,0.06
2013-10-19,72.3,65.6,59.2,49.3,38.7,13.1,53,38,13,30.01,29.81,19,10,33,0.23
2013-10-20,75.0,65.1,53.1,49.8,41.3,32.8,49,42,32,29.97,29.82,9,6,15,0.00
2013-10-21,74.5,70.5,65.3,65.5,41.0,29.9,85,35,21,29.87,29.77,12,3,18,0.51
2013-10-22,78.3,67.6,59.0,66.5,50.6,39.7,96,57,27,30.00,29.86,14,6,23,0.00
2013-10-23,82.9,68.3,55.0,54.8,41.0,20.6,52,39,10,30.06,29.97,7,3,10,0.01
2013-10-24,84.2,70.3,56.8,56.7,42.5,23.2,51,37,18,30.11,30.01,9,4,11,0.00
2013-10-25,77.2,70.1,62.8,52.3,38.9,9.6,47,34,10,30.19,30.09,18,9,24,0.00
2013-10-26,78.4,74.5,67.5,51.3,35.5,9.0,39,26,10,30.10,29.97,14,8,18,0.00
2013-10-27,78.6,75.3,68.4,47.9,24.5,13.3,36,17,10,29.99,29.88,14,7,24,0.00
2013-10-28,80.4,76.4,70.5,19.2,16.1,11.6,14,10,10,29.98,29.88,19,8,25,0.00
2013-10-29,81.3,79.0,76.6,19.6,17.8,16.0,10,10,10,29.98,29.89,19,11,23,0.00
2013-10-30,82.8,79.9,77.4,20.7,18.5,16.6,10,10,10,29.92,29.74,18,6,27,0.19
2013-10-31,80.1,77.7,72.9,67.0,20.9,13.2,70,14,10,29.78,29.67,8,1,12,3.40
2013-11-1,80.4,74.9,68.9,43.6,22.7,10.1,29,15,10,29.88,29.72,13,6,17,0.02
2013-11-2,75.2,66.3,57.9,41.0,32.2,14.3,45,30,10,30.12,29.89,18,8,31,0.00
2013-11-3,72.3,64.2,54.0,46.3,34.4,7.1,45,35,10,30.12,29.93,14,9,21,0.00
2013-11-4,72.0,67.3,61.0,39.4,11.1,4.1,33,11,10,29.96,29.83,13,2,18,0.00
2013-11-5,74.3,71.9,69.1,64.8,28.8,11.6,81,25,10,29.91,29.81,17,4,24,0.83
2013-11-6,86.5,71.4,57.6,60.9,41.3,12.7,69,36,10,30.13,29.86,19,6,30,0.91
2013-11-7,64.4,57.3,51.4,41.0,35.3,32.1,48,44,35,30.28,30.12,19,12,30,0.00
2013-11-8,68.0,59.6,51.3,42.5,35.0,26.5,44,40,36,30.24,30.06,13,9,22,0.00
2013-11-9,70.2,63.4,55.6,40.8,32.5,25.0,40,32,20,30.07,30.00,12,8,17,0.00
2013-11-10,87.1,85.4,83.3,52.5,43.4,36.2,31,23,18,29.51,29.36,22,17,26,0.00
2013-11-11,88.0,85.2,82.6,54.4,43.1,35.8,32,23,18,29.57,29.47,21,16,24,0.00
2013-11-12,92.5,75.2,53.1,61.2,37.8,28.1,39,27,17,30.00,29.49,21,12,34,0.00
2013-11-13,58.6,49.6,41.4,30.9,24.2,14.0,50,38,17,30.06,29.88,15,9,27,0.00
2013-11-14,63.1,55.5,43.0,35.1,24.3,10.0,45,32,14,29.87,29.51,16,8,21,0.00
2013-11-15,76.5,65.8,57.4,49.2,29.5,8.3,54,28,10,29.51,29.37,8,2,11,0.00
2013-11-16,73.6,68.1,64.4,70.1,50.2,17.8,100,60,13,29.40,29.26,8,1,11,0.00
2013-11-17,82.8,72.9,67.6,72.1,61.2,27.4,99,72,18,29.40,29.25,10,2,18,0.00
2013-11-18,78.4,71.4,68.4,76.6,66.9,48.7,99,87,39,29.55,29.39,20,4,27,0.02
2013-11-19,68.7,65.6,61.7,57.0,52.7,47.6,70,63,54,29.57,29.47,17,12,24,0.00
2013-11-20,72.7,69.2,64.0,70.8,59.1,50.6,99,72,48,29.47,29.34,20,12,27,0.00
2013-11-21,76.1,72.6,69.6,75.9,69.0,12.7,99,93,10,29.52,29.40,11,6,14,0.00
2013-11-22,73.6,56.1,42.1,52.8,36.1,12.5,99,68,10,29.76,29.50,21,12,36,0.55
2013-11-23,49.3,45.2,41.0,48.0,40.9,25.3,100,86,50,29.84,29.73,20,14,34,0.02
2013-11-24,49.1,46.4,43.0,46.0,37.7,33.1,90,72,56,29.87,29.74,15,11,24,0.00
2013-11-25,43.9,42.6,41.0,40.8,34.5,21.7,92,74,41,29.75,29.48,17,12,30,0.64
2013-11-26,48.7,43.3,40.6,39.4,36.0,27.4,90,76,58,29.79,29.52,15,9,29,0.47
2013-11-27,54.5,42.9,34.7,32.7,26.3,13.4,74,55,20,29.92,29.79,16,6,28,0.00
2013-11-28,64.8,48.0,38.3,42.2,31.4,24.1,64,53,37,29.93,29.82,8,4,12,0.00
2013-11-29,59.0,51.9,46.0,44.8,36.1,23.9,66,55,40,29.94,29.84,15,9,22,0.00
2013-11-30,63.7,56.6,48.4,48.6,30.1,0.2,62,41,10,29.85,29.68,9,4,11,0.00
2013-12-1,67.6,60.6,55.2,62.7,20.7,-0.2,99,26,10,29.67,29.44,7,2,10,0.00
2013-12-2,77.4,65.6,60.1,67.7,34.6,3.4,100,40,10,29.43,29.18,10,5,17,0.00
2013-12-3,76.5,68.5,62.1,63.5,47.2,32.0,84,48,27,29.23,29.12,13,7,22,0.00
2013-12-4,74.5,68.1,66.7,74.2,35.6,8.9,99,40,10,29.28,29.17,9,2,12,0.00
2013-12-5,72.1,57.2,40.1,71.9,50.3,0.3,100,82,10,29.47,29.26,20,9,36,0.02
2013-12-6,44.4,39.4,35.1,44.2,36.7,22.4,100,91,52,29.83,29.44,19,15,34,0.02
2013-12-7,35.2,34.2,32.9,35.0,34.0,32.7,100,99,99,29.89,29.75,17,11,29,0.00
2013-12-8,48.0,41.4,34.2,47.8,39.0,26.1,100,93,46,29.73,29.52,11,5,18,0.00
2013-12-9,51.1,46.9,40.1,49.2,38.0,24.1,100,73,39,29.75,29.50,19,9,30,0.23
2013-12-10,49.6,41.5,33.8,39.8,35.4,21.7,100,81,33,29.92,29.75,20,12,34,0.00
2013-12-11,56.8,48.9,42.4,49.5,44.5,38.1,100,85,71,29.96,29.79,8,5,13,0.00
2013-12-12,54.7,47.0,41.5,46.5,42.6,36.4,100,86,50,30.03,29.81,11,6,20,0.00
2013-12-13,66.6,53.7,43.5,66.3,49.9,5.7,99,91,11,29.81,29.32,7,3,12,0.00
2013-12-14,66.9,55.7,41.2,62.5,52.3,35.3,100,90,32,29.78,29.35,20,8,40,0.17
2013-12-15,60.8,46.5,35.6,48.8,31.8,0.6,99,72,10,29.89,29.76,8,4,14,0.00
2013-12-16,59.2,49.1,35.6,55.9,47.3,32.4,100,94,70,29.83,29.71,8,3,10,0.00
2013-12-17,64.2,54.1,40.8,64.0,51.7,27.8,100,92,55,29.82,29.71,7,3,10,0.00
2013-12-18,66.6,56.5,43.9,66.3,50.6,14.1,100,83,23,29.77,29.58,9,5,12,0.02
2013-12-19,70.5,62.7,57.9,70.3,57.5,37.8,100,86,39,29.57,29.33,12,7,17,0.00
2013-12-20,66.6,63.9,60.8,64.5,45.0,5.4,99,56,10,29.35,29.16,17,7,24,0.00
2013-12-21,72.5,66.5,57.7,72.2,58.8,8.8,99,84,10,29.28,29.06,20,5,27,0.15
2013-12-22,70.9,58.8,43.7,65.9,51.9,10.3,99,85,10,29.80,29.29,18,8,29,0.00
2013-12-23,59.0,46.1,34.3,44.6,34.3,1.3,100,75,10,30.00,29.80,16,8,27,0.00
2013-12-24,55.4,47.8,39.2,55.2,47.3,38.9,100,98,80,30.02,29.75,15,9,21,0.00
2013-12-25,59.5,55.0,48.9,59.3,54.7,48.5,99,99,99,29.81,29.71,15,10,21,0.00
2013-12-26,61.3,54.8,50.9,60.5,54.6,50.6,99,99,97,29.85,29.76,9,5,17,0.11
2013-12-27,57.7,52.8,50.0,57.5,52.5,49.7,99,99,99,29.88,29.76,6,4,10,0.15
2013-12-28,65.3,52.7,48.2,55.0,48.4,6.8,99,90,10,29.77,29.52,7,3,11,0.00
2013-12-29,65.3,54.1,41.5,63.9,52.8,32.8,100,96,58,29.62,29.47,14,2,27,0.00
2013-12-30,51.3,42.4,39.0,51.0,42.1,38.8,100,99,96,29.86,29.61,19,12,31,0.00
2013-12-31,49.5,44.8,41.4,48.4,43.9,41.1,100,97,87,29.92,29.75,10,5,17,0.15
2014-1-1,62.1,54.1,46.0,61.8,47.5,19.5,100,84,22,29.75,29.49,5,2,8,0.04
2014-1-2,58.8,48.9,39.7,56.9,33.0,-1.6,100,62,10,29.92,29.53,21,13,36,0.02